Time;durP1;ratioP1;P1;durP2;ratioP2;P2;SDS_P1;SDS_P2;PMS_P1;PMS_P2;Temp;Humidity;BMP_temperature;BMP_pressure;BME280_temperature;BME280_humidity;BME280_pressure;Samples;Min_cycle;Max_cycle;Signal;HPM_P1;HPM_P2
2021/12/24 00:01:49;0.00;0.00;0.62;0.00;0.00;0.62;3.47;2.50;;;19.30;26.10;;;;;;2269905;61;20395;-52
2021/12/24 00:04:34;0.00;0.00;0.62;0.00;0.00;0.62;3.00;2.20;;;19.40;26.20;;;;;;2268933;61;20383;-56
2021/12/24 00:07:20;0.00;0.00;0.62;0.00;0.00;0.62;3.20;2.63;;;19.40;26.20;;;;;;2269586;61;20376;-55
2021/12/24 00:10:07;0.00;0.00;0.62;0.00;0.00;0.62;3.07;1.80;;;19.40;26.20;;;;;;2269904;61;20688;-55
2021/12/24 00:13:02;0.00;0.00;0.62;0.00;0.00;0.62;2.70;2.30;;;19.40;26.20;;;;;;2268826;61;20452;-57
2021/12/24 00:18:45;0.00;0.00;0.62;0.00;0.00;0.62;2.30;1.90;;;19.40;26.20;;;;;;2269328;61;20403;-56
2021/12/24 00:36:50;0.00;0.00;0.62;0.00;0.00;0.62;2.60;1.70;;;19.40;26.20;;;;;;2269435;61;20433;-56
2021/12/24 00:39:44;0.00;0.00;0.62;0.00;0.00;0.62;2.00;1.53;;;19.50;26.30;;;;;;2270221;61;20425;-58
2021/12/24 00:42:29;0.00;0.00;0.62;0.00;0.00;0.62;2.40;1.80;;;19.40;26.20;;;;;;2269098;61;20577;-55
2021/12/24 00:45:17;0.00;0.00;0.62;0.00;0.00;0.62;1.90;1.67;;;19.50;26.30;;;;;;2269797;61;20370;-55
2021/12/24 00:48:05;0.00;0.00;0.62;0.00;0.00;0.62;3.20;2.17;;;19.50;26.30;;;;;;2269422;61;20391;-56
2021/12/24 00:56:31;0.00;0.00;0.62;0.00;0.00;0.62;2.53;1.70;;;19.50;26.30;;;;;;2269413;61;20419;-62
2021/12/24 00:59:15;0.00;0.00;0.62;0.00;0.00;0.62;2.13;1.67;;;19.50;26.30;;;;;;2270254;61;20356;-57
2021/12/24 01:02:03;0.00;0.00;0.62;0.00;0.00;0.62;2.37;1.73;;;19.50;26.30;;;;;;2270435;61;20441;-57
2021/12/24 01:04:49;0.00;0.00;0.62;0.00;0.00;0.62;2.13;1.53;;;19.50;26.30;;;;;;2268647;61;20368;-56
2021/12/24 01:07:34;0.00;0.00;0.62;0.00;0.00;0.62;1.90;1.50;;;19.50;26.30;;;;;;2270421;61;20375;-51
2021/12/24 01:10:26;0.00;0.00;0.62;0.00;0.00;0.62;1.73;1.30;;;19.50;26.30;;;;;;2269526;61;20387;-57
2021/12/24 01:13:12;0.00;0.00;0.62;0.00;0.00;0.62;2.33;1.80;;;19.60;26.30;;;;;;2269698;61;20432;-58
2021/12/24 01:16:02;0.00;0.00;0.62;0.00;0.00;0.62;1.60;1.27;;;19.60;26.30;;;;;;2275517;61;20404;-55
2021/12/24 01:18:58;0.00;0.00;0.62;0.00;0.00;0.62;1.50;1.20;;;19.60;26.40;;;;;;2269174;61;20592;-57
2021/12/24 01:24:48;0.00;0.00;0.62;0.00;0.00;0.62;2.07;1.63;;;19.60;26.30;;;;;;2269952;61;20731;-57
2021/12/24 01:40:08;0.00;0.00;0.62;0.00;0.00;0.62;1.90;1.33;;;19.60;26.30;;;;;;2269896;61;20576;-59
2021/12/24 01:42:44;0.00;0.00;0.62;0.00;0.00;0.62;2.10;1.30;;;19.60;26.30;;;;;;2269488;61;20574;-59
2021/12/24 01:45:34;0.00;0.00;0.62;0.00;0.00;0.62;1.70;1.30;;;19.60;26.40;;;;;;2269766;61;20486;-53
2021/12/24 01:48:21;0.00;0.00;0.62;0.00;0.00;0.62;1.90;1.13;;;19.60;26.30;;;;;;2268844;61;20364;-53
2021/12/24 01:51:05;0.00;0.00;0.62;0.00;0.00;0.62;2.10;1.50;;;19.60;26.30;;;;;;2269620;61;20636;-54
2021/12/24 01:54:03;0.00;0.00;0.62;0.00;0.00;0.62;1.60;1.20;;;19.60;26.30;;;;;;2269744;61;20356;-53
2021/12/24 01:56:48;0.00;0.00;0.62;0.00;0.00;0.62;1.77;1.43;;;19.50;26.30;;;;;;2268550;61;20771;-51
2021/12/24 01:59:33;0.00;0.00;0.62;0.00;0.00;0.62;1.70;1.20;;;19.50;26.30;;;;;;2275448;61;20708;-53
2021/12/24 02:02:19;0.00;0.00;0.62;0.00;0.00;0.62;1.60;1.10;;;19.50;26.30;;;;;;2269253;61;20626;-57
2021/12/24 02:05:04;0.00;0.00;0.62;0.00;0.00;0.62;1.83;1.20;;;19.50;26.50;;;;;;2269877;61;20364;-53
2021/12/24 02:07:51;0.00;0.00;0.62;0.00;0.00;0.62;1.90;1.30;;;19.40;26.50;;;;;;2270175;61;20423;-53
2021/12/24 02:10:36;0.00;0.00;0.62;0.00;0.00;0.62;1.70;1.10;;;19.40;26.60;;;;;;2274441;61;20774;-57
2021/12/24 02:13:22;0.00;0.00;0.62;0.00;0.00;0.62;1.80;1.10;;;19.40;26.60;;;;;;2269385;61;20360;-57
2021/12/24 02:16:34;0.00;0.00;0.62;0.00;0.00;0.62;1.47;1.10;;;19.30;26.60;;;;;;2269932;61;20395;-56
2021/12/24 02:28:36;0.00;0.00;0.62;0.00;0.00;0.62;1.40;1.00;;;19.20;26.90;;;;;;2270159;61;20367;-57
2021/12/24 02:31:25;0.00;0.00;0.62;0.00;0.00;0.62;1.50;1.00;;;19.20;26.90;;;;;;2275244;61;20681;-53
2021/12/24 02:34:10;0.00;0.00;0.62;0.00;0.00;0.62;2.70;1.10;;;19.20;26.60;;;;;;2268996;61;20349;-55
2021/12/24 02:36:55;0.00;0.00;0.62;0.00;0.00;0.62;1.50;1.03;;;19.20;27.00;;;;;;2269948;61;20395;-57
2021/12/24 02:39:43;0.00;0.00;0.62;0.00;0.00;0.62;1.67;1.00;;;19.20;27.10;;;;;;2268833;61;20768;-58
2021/12/24 02:42:29;0.00;0.00;0.62;0.00;0.00;0.62;1.40;0.90;;;19.10;27.00;;;;;;2269450;61;20384;-55
2021/12/24 02:45:13;0.00;0.00;0.62;0.00;0.00;0.62;1.40;0.90;;;19.10;27.20;;;;;;2269907;61;20372;-52
2021/12/24 02:53:57;0.00;0.00;0.62;0.00;0.00;0.62;1.70;0.97;;;19.00;27.30;;;;;;2268947;61;20557;-55
2021/12/24 02:56:49;0.00;0.00;0.62;0.00;0.00;0.62;1.27;0.80;;;19.00;27.40;;;;;;2274921;61;20648;-56
2021/12/24 02:59:36;0.00;0.00;0.62;0.00;0.00;0.62;1.60;1.00;;;19.00;27.50;;;;;;2269996;61;20464;-56
2021/12/24 03:02:21;0.00;0.00;0.62;0.00;0.00;0.62;1.60;1.00;;;18.90;27.50;;;;;;2269129;61;20363;-53
2021/12/24 03:05:07;0.00;0.00;0.62;0.00;0.00;0.62;1.20;0.70;;;18.90;27.50;;;;;;2269686;61;20415;-55
2021/12/24 03:07:53;0.00;0.00;0.62;0.00;0.00;0.62;1.50;0.90;;;18.90;27.60;;;;;;2270008;61;20396;-56
2021/12/24 03:10:38;0.00;0.00;0.62;0.00;0.00;0.62;1.30;0.80;;;18.90;27.60;;;;;;2269015;61;20360;-55
2021/12/24 03:13:25;0.00;0.00;0.62;0.00;0.00;0.62;1.57;1.10;;;18.90;27.60;;;;;;2269524;61;20395;-53
2021/12/24 03:16:11;0.00;0.00;0.62;0.00;0.00;0.62;1.60;1.03;;;18.90;27.70;;;;;;2268818;61;20395;-57
2021/12/24 03:18:56;0.00;0.00;0.62;0.00;0.00;0.62;1.60;0.90;;;18.90;27.70;;;;;;2269816;61;20360;-55
2021/12/24 03:21:56;0.00;0.00;0.62;0.00;0.00;0.62;1.30;0.90;;;18.80;27.70;;;;;;2270015;61;20360;-56
2021/12/24 03:24:41;0.00;0.00;0.62;0.00;0.00;0.62;1.30;0.90;;;18.80;27.70;;;;;;2274093;61;20406;-56
2021/12/24 03:27:26;0.00;0.00;0.62;0.00;0.00;0.62;2.17;1.13;;;18.80;27.80;;;;;;2269321;61;20467;-55
2021/12/24 03:30:13;0.00;0.00;0.62;0.00;0.00;0.62;2.27;1.20;;;18.80;27.80;;;;;;2269958;61;20585;-56
2021/12/24 03:32:58;0.00;0.00;0.62;0.00;0.00;0.62;1.53;1.10;;;18.80;27.90;;;;;;2268700;61;20598;-56
2021/12/24 03:35:42;0.00;0.00;0.62;0.00;0.00;0.62;1.50;1.00;;;18.80;27.90;;;;;;2269796;61;20390;-58
2021/12/24 03:38:28;0.00;0.00;0.62;0.00;0.00;0.62;1.60;1.00;;;18.80;27.90;;;;;;2269350;61;20579;-57
2021/12/24 03:41:12;0.00;0.00;0.62;0.00;0.00;0.62;1.50;1.00;;;18.80;28.00;;;;;;2269273;61;20435;-57
2021/12/24 03:43:57;0.00;0.00;0.62;0.00;0.00;0.62;1.80;1.13;;;18.80;28.00;;;;;;2269564;61;20460;-53
2021/12/24 03:46:59;0.00;0.00;0.62;0.00;0.00;0.62;1.43;1.00;;;18.80;28.10;;;;;;2268843;61;20387;-58
2021/12/24 03:54:55;0.00;0.00;0.62;0.00;0.00;0.62;1.80;1.10;;;18.70;28.20;;;;;;2269326;61;20364;-55
2021/12/24 03:55:39;0.00;0.00;0.62;0.00;0.00;0.62;1.30;1.00;;;18.70;28.20;;;;;;2268289;61;20376;-57
2021/12/24 03:58:23;0.00;0.00;0.62;0.00;0.00;0.62;1.40;1.00;;;18.70;28.30;;;;;;2269790;61;20363;-53
2021/12/24 04:01:28;0.00;0.00;0.62;0.00;0.00;0.62;1.60;1.30;;;18.70;28.30;;;;;;2268882;61;20364;-57
2021/12/24 04:04:33;0.00;0.00;0.62;0.00;0.00;0.62;1.40;1.00;;;18.70;28.30;;;;;;2269699;61;20360;-56
2021/12/24 04:07:37;0.00;0.00;0.62;0.00;0.00;0.62;1.67;1.17;;;18.70;28.40;;;;;;2269898;61;20769;-56
2021/12/24 04:10:40;0.00;0.00;0.62;0.00;0.00;0.62;1.33;0.90;;;18.70;28.40;;;;;;2269597;61;20360;-57
2021/12/24 04:13:44;0.00;0.00;0.62;0.00;0.00;0.62;1.50;1.10;;;18.60;28.40;;;;;;2270501;61;20728;-54
2021/12/24 04:16:29;0.00;0.00;0.62;0.00;0.00;0.62;1.40;1.13;;;18.60;28.50;;;;;;2269022;61;20400;-53
2021/12/24 04:24:50;0.00;0.00;0.62;0.00;0.00;0.62;1.70;1.10;;;18.60;28.50;;;;;;2267347;61;20401;-56
2021/12/24 04:25:37;0.00;0.00;0.62;0.00;0.00;0.62;2.07;1.20;;;18.60;28.60;;;;;;2270164;61;20418;-58
2021/12/24 04:28:21;0.00;0.00;0.62;0.00;0.00;0.62;1.47;1.10;;;18.60;28.70;;;;;;2270031;61;20405;-57
2021/12/24 04:31:06;0.00;0.00;0.62;0.00;0.00;0.62;1.80;1.30;;;18.60;28.70;;;;;;2268983;61;20395;-56
2021/12/24 04:33:51;0.00;0.00;0.62;0.00;0.00;0.62;1.60;1.10;;;18.60;28.80;;;;;;2275674;61;20363;-56
2021/12/24 04:37:29;0.00;0.00;0.62;0.00;0.00;0.62;1.60;1.00;;;18.60;28.80;;;;;;2275560;61;20650;-52
2021/12/24 04:50:57;0.00;0.00;0.62;0.00;0.00;0.62;1.80;1.30;;;18.60;28.90;;;;;;2275102;61;20356;-54
2021/12/24 04:51:03;0.00;0.00;0.62;0.00;0.00;0.62;1.83;1.60;;;18.60;29.00;;;;;;2270503;61;20568;-55
2021/12/24 05:01:30;0.00;0.00;0.62;0.00;0.00;0.62;1.40;1.00;;;18.40;29.30;;;;;;2268974;61;20460;-54
2021/12/24 05:04:15;0.00;0.00;0.62;0.00;0.00;0.62;1.90;1.30;;;18.40;29.30;;;;;;2275582;61;20720;-52
2021/12/24 05:07:26;0.00;0.00;0.62;0.00;0.00;0.62;1.40;1.00;;;18.40;29.30;;;;;;2274887;60;20410;-58
2021/12/24 05:10:12;0.00;0.00;0.62;0.00;0.00;0.62;1.70;1.10;;;18.40;29.40;;;;;;2275372;61;20719;-56
2021/12/24 05:12:57;0.00;0.00;0.62;0.00;0.00;0.62;1.90;1.40;;;18.40;29.50;;;;;;2275470;61;20363;-53
2021/12/24 05:16:05;0.00;0.00;0.62;0.00;0.00;0.62;2.17;1.37;;;18.40;29.60;;;;;;2268780;61;20415;-52
2021/12/24 05:22:18;0.00;0.00;0.62;0.00;0.00;0.62;1.50;1.13;;;18.40;29.70;;;;;;2269357;61;20588;-54
2021/12/24 05:25:04;0.00;0.00;0.62;0.00;0.00;0.62;2.00;1.50;;;18.30;29.80;;;;;;2269596;61;20361;-54
2021/12/24 05:27:51;0.00;0.00;0.62;0.00;0.00;0.62;1.80;1.30;;;18.40;29.90;;;;;;2270324;61;20422;-54
2021/12/24 05:30:38;0.00;0.00;0.62;0.00;0.00;0.62;1.63;1.40;;;18.30;29.90;;;;;;2274532;61;20824;-57
2021/12/24 05:33:22;0.00;0.00;0.62;0.00;0.00;0.62;1.70;1.20;;;18.30;29.90;;;;;;2269685;61;20693;-56
2021/12/24 05:36:07;0.00;0.00;0.62;0.00;0.00;0.62;2.10;1.33;;;18.30;29.90;;;;;;2275287;61;20628;-54
2021/12/24 05:38:52;0.00;0.00;0.62;0.00;0.00;0.62;2.03;1.63;;;18.30;30.00;;;;;;2269285;61;20383;-53
2021/12/24 05:41:38;0.00;0.00;0.62;0.00;0.00;0.62;2.00;1.70;;;18.30;30.00;;;;;;2275467;61;20382;-57
2021/12/24 05:44:23;0.00;0.00;0.62;0.00;0.00;0.62;2.00;1.80;;;18.30;30.20;;;;;;2274698;61;20367;-54
2021/12/24 05:47:18;0.00;0.00;0.62;0.00;0.00;0.62;2.07;1.67;;;18.30;30.20;;;;;;2275266;61;20383;-55
2021/12/24 05:50:07;0.00;0.00;0.62;0.00;0.00;0.62;2.20;2.00;;;18.30;30.20;;;;;;2275352;61;20429;-57
2021/12/24 05:53:01;0.00;0.00;0.62;0.00;0.00;0.62;2.23;1.73;;;18.30;30.30;;;;;;2268751;61;20387;-57
2021/12/24 05:56:05;0.00;0.00;0.62;0.00;0.00;0.62;3.30;2.10;;;18.30;30.40;;;;;;2269901;61;20391;-58
2021/12/24 05:58:50;0.00;0.00;0.62;0.00;0.00;0.62;2.50;2.07;;;18.20;30.40;;;;;;2269151;61;20433;-56
2021/12/24 06:01:36;0.00;0.00;0.62;0.00;0.00;0.62;2.60;2.13;;;18.20;30.50;;;;;;2275023;60;20579;-57
2021/12/24 06:04:20;0.00;0.00;0.62;0.00;0.00;0.62;2.67;2.07;;;18.20;31.20;;;;;;2270148;61;20364;-56
2021/12/24 06:07:05;0.00;0.00;0.62;0.00;0.00;0.62;2.40;2.13;;;18.20;30.60;;;;;;2269314;61;20376;-58
2021/12/24 06:09:50;0.00;0.00;0.62;0.00;0.00;0.62;2.10;1.90;;;18.20;30.70;;;;;;2270022;61;20391;-55
2021/12/24 06:12:34;0.00;0.00;0.62;0.00;0.00;0.62;2.80;2.07;;;18.20;30.80;;;;;;2270091;61;20379;-52
2021/12/24 06:15:23;0.00;0.00;0.62;0.00;0.00;0.62;2.70;2.10;;;18.20;30.70;;;;;;2269138;61;20360;-53
2021/12/24 06:18:13;0.00;0.00;0.62;0.00;0.00;0.62;2.37;2.13;;;18.20;30.80;;;;;;2270153;61;20399;-57
2021/12/24 06:21:03;0.00;0.00;0.62;0.00;0.00;0.62;3.13;2.40;;;18.20;30.80;;;;;;2269700;61;20370;-57
2021/12/24 06:23:48;0.00;0.00;0.62;0.00;0.00;0.62;2.53;2.27;;;18.20;30.90;;;;;;2269772;61;20364;-58
2021/12/24 06:26:33;0.00;0.00;0.62;0.00;0.00;0.62;4.73;2.57;;;18.20;30.90;;;;;;2270006;61;20601;-55
2021/12/24 06:29:20;0.00;0.00;0.62;0.00;0.00;0.62;3.80;2.80;;;18.20;31.00;;;;;;2269267;61;20359;-54
2021/12/24 06:32:06;0.00;0.00;0.62;0.00;0.00;0.62;3.27;2.90;;;18.20;31.10;;;;;;2269748;61;20360;-56
2021/12/24 06:34:52;0.00;0.00;0.62;0.00;0.00;0.62;2.97;2.50;;;18.20;31.20;;;;;;2269721;61;20368;-53
2021/12/24 06:37:37;0.00;0.00;0.62;0.00;0.00;0.62;3.30;2.47;;;18.20;31.30;;;;;;2268943;61;20447;-58
2021/12/24 06:40:22;0.00;0.00;0.62;0.00;0.00;0.62;2.47;2.27;;;18.20;31.30;;;;;;2269733;61;20386;-55
2021/12/24 06:43:07;0.00;0.00;0.62;0.00;0.00;0.62;3.23;2.50;;;18.20;31.30;;;;;;2269853;61;20387;-58
2021/12/24 06:45:52;0.00;0.00;0.62;0.00;0.00;0.62;3.50;2.73;;;18.20;31.40;;;;;;2269586;61;20834;-54
2021/12/24 06:48:36;0.00;0.00;0.62;0.00;0.00;0.62;2.63;2.30;;;18.20;31.50;;;;;;2270155;61;20360;-52
2021/12/24 06:51:22;0.00;0.00;0.62;0.00;0.00;0.62;3.00;2.57;;;18.20;31.50;;;;;;2269100;61;20728;-54
2021/12/24 06:54:09;0.00;0.00;0.62;0.00;0.00;0.62;3.20;2.70;;;18.20;31.50;;;;;;2270023;61;20368;-57
2021/12/24 06:56:53;0.00;0.00;0.62;0.00;0.00;0.62;2.60;2.10;;;18.20;31.60;;;;;;2269618;61;20391;-53
2021/12/24 06:59:38;0.00;0.00;0.62;0.00;0.00;0.62;2.63;2.10;;;18.20;31.70;;;;;;2265968;61;20356;-55
2021/12/24 07:02:23;0.00;0.00;0.62;0.00;0.00;0.62;3.37;2.23;;;18.20;31.70;;;;;;2269728;61;20360;-58
2021/12/24 07:05:08;0.00;0.00;0.62;0.00;0.00;0.62;3.27;2.50;;;18.20;31.60;;;;;;2269967;61;20398;-54
2021/12/24 07:07:54;0.00;0.00;0.62;0.00;0.00;0.62;2.43;1.97;;;18.20;31.70;;;;;;2269661;61;20407;-54
2021/12/24 07:10:38;0.00;0.00;0.62;0.00;0.00;0.62;2.53;2.20;;;18.20;31.80;;;;;;2270132;61;20407;-53
2021/12/24 07:13:24;0.00;0.00;0.62;0.00;0.00;0.62;3.40;2.53;;;18.20;31.80;;;;;;2268942;61;20425;-53
2021/12/24 07:16:09;0.00;0.00;0.62;0.00;0.00;0.62;3.00;2.23;;;18.20;31.80;;;;;;2269931;61;20422;-55
2021/12/24 07:18:53;0.00;0.00;0.62;0.00;0.00;0.62;2.27;2.07;;;18.20;31.90;;;;;;2270114;61;20407;-52
2021/12/24 07:21:38;0.00;0.00;0.62;0.00;0.00;0.62;2.67;2.43;;;18.20;31.90;;;;;;2268917;61;20751;-52
2021/12/24 07:24:25;0.00;0.00;0.62;0.00;0.00;0.62;2.53;2.33;;;18.20;32.00;;;;;;2270089;61;20356;-50
2021/12/24 07:27:10;0.00;0.00;0.62;0.00;0.00;0.62;3.13;2.40;;;18.20;32.00;;;;;;2270016;61;20450;-55
2021/12/24 07:29:54;0.00;0.00;0.62;0.00;0.00;0.62;3.17;2.87;;;18.20;32.10;;;;;;2269243;61;20368;-55
2021/12/24 07:32:40;0.00;0.00;0.62;0.00;0.00;0.62;3.57;2.87;;;18.20;32.20;;;;;;2270014;61;20576;-58
2021/12/24 07:35:25;0.00;0.00;0.62;0.00;0.00;0.62;3.00;2.57;;;18.20;32.20;;;;;;2268948;61;20584;-55
2021/12/24 07:38:13;0.00;0.00;0.62;0.00;0.00;0.62;2.63;2.03;;;18.20;32.20;;;;;;2270053;61;20375;-55
2021/12/24 07:41:00;0.00;0.00;0.62;0.00;0.00;0.62;2.90;2.57;;;18.20;32.30;;;;;;2270005;61;20355;-57
2021/12/24 07:43:45;0.00;0.00;0.62;0.00;0.00;0.62;2.43;2.10;;;18.20;32.30;;;;;;2268911;61;20442;-55
2021/12/24 07:46:40;0.00;0.00;0.62;0.00;0.00;0.62;3.27;2.77;;;18.20;32.30;;;;;;2269753;61;20862;-56
2021/12/24 07:52:09;0.00;0.00;0.62;0.00;0.00;0.62;3.53;2.60;;;18.20;32.40;;;;;;2269402;61;20355;-57
2021/12/24 07:54:54;0.00;0.00;0.62;0.00;0.00;0.62;3.77;3.37;;;18.20;32.40;;;;;;2269802;61;20402;-55
2021/12/24 07:57:40;0.00;0.00;0.62;0.00;0.00;0.62;4.13;2.90;;;18.20;32.40;;;;;;2268840;61;20384;-57
2021/12/24 08:00:27;0.00;0.00;0.62;0.00;0.00;0.62;3.50;2.57;;;18.20;32.50;;;;;;2270020;61;20368;-55
2021/12/24 08:03:11;0.00;0.00;0.62;0.00;0.00;0.62;2.87;2.30;;;18.20;32.60;;;;;;2269896;61;20770;-57
2021/12/24 08:05:56;0.00;0.00;0.62;0.00;0.00;0.62;4.30;3.27;;;18.20;32.60;;;;;;2268898;61;20438;-56
2021/12/24 08:08:40;0.00;0.00;0.62;0.00;0.00;0.62;3.73;3.13;;;18.20;32.70;;;;;;2269960;61;20363;-54
2021/12/24 08:11:25;0.00;0.00;0.62;0.00;0.00;0.62;4.20;3.43;;;18.20;32.80;;;;;;2269721;61;20368;-58
2021/12/24 08:14:11;0.00;0.00;0.62;0.00;0.00;0.62;4.43;3.27;;;18.20;32.80;;;;;;2268592;61;20364;-55
2021/12/24 08:16:55;0.00;0.00;0.62;0.00;0.00;0.62;3.37;3.00;;;18.20;32.80;;;;;;2269752;61;20392;-53
2021/12/24 08:19:40;0.00;0.00;0.62;0.00;0.00;0.62;4.27;3.50;;;18.20;32.90;;;;;;2269272;61;20392;-54
2021/12/24 08:22:24;0.00;0.00;0.62;0.00;0.00;0.62;4.63;3.83;;;18.10;33.00;;;;;;2270014;61;20383;-56
2021/12/24 08:25:09;0.00;0.00;0.62;0.00;0.00;0.62;4.77;4.07;;;18.20;33.20;;;;;;2269658;61;20364;-58
2021/12/24 08:27:54;0.00;0.00;0.62;0.00;0.00;0.62;4.00;3.60;;;18.20;33.30;;;;;;2268815;61;20376;-55
2021/12/24 08:30:41;0.00;0.00;0.62;0.00;0.00;0.62;4.10;3.73;;;18.10;33.30;;;;;;2269935;61;20711;-55
2021/12/24 08:33:25;0.00;0.00;0.62;0.00;0.00;0.62;4.70;4.00;;;18.10;33.50;;;;;;2269678;61;20474;-57
2021/12/24 08:36:11;0.00;0.00;0.62;0.00;0.00;0.62;4.03;3.60;;;18.10;33.60;;;;;;2268748;61;20391;-56
2021/12/24 08:38:56;0.00;0.00;0.62;0.00;0.00;0.62;3.93;3.50;;;18.10;33.60;;;;;;2269689;61;20763;-54
2021/12/24 08:41:41;0.00;0.00;0.62;0.00;0.00;0.62;4.00;3.27;;;18.00;33.50;;;;;;2269284;61;20391;-50
2021/12/24 08:44:31;0.00;0.00;0.62;0.00;0.00;0.62;5.30;4.27;;;18.00;33.50;;;;;;2269657;61;20428;-55
2021/12/24 08:47:17;0.00;0.00;0.62;0.00;0.00;0.62;4.67;4.13;;;18.00;33.50;;;;;;2269688;61;20380;-55
2021/12/24 08:50:02;0.00;0.00;0.62;0.00;0.00;0.62;4.47;4.07;;;18.00;33.50;;;;;;2268722;61;20364;-53
2021/12/24 08:52:47;0.00;0.00;0.62;0.00;0.00;0.62;4.37;3.97;;;18.00;33.50;;;;;;2269548;61;20433;-55
2021/12/24 08:55:31;0.00;0.00;0.62;0.00;0.00;0.62;5.13;3.70;;;18.00;33.50;;;;;;2269597;61;20399;-58
2021/12/24 08:58:16;0.00;0.00;0.62;0.00;0.00;0.62;3.37;3.07;;;18.00;33.50;;;;;;2267756;61;20380;-57
2021/12/24 09:01:00;0.00;0.00;0.62;0.00;0.00;0.62;3.37;2.90;;;18.00;33.50;;;;;;2270247;61;20356;-56
2021/12/24 09:03:46;0.00;0.00;0.62;0.00;0.00;0.62;2.80;2.40;;;18.00;33.50;;;;;;2269549;61;20579;-57
2021/12/24 09:06:31;0.00;0.00;0.62;0.00;0.00;0.62;3.20;2.60;;;18.00;33.50;;;;;;2269549;61;20376;-57
2021/12/24 09:09:16;0.00;0.00;0.62;0.00;0.00;0.62;2.50;2.30;;;18.00;33.40;;;;;;2270365;61;20751;-55
2021/12/24 09:12:01;0.00;0.00;0.62;0.00;0.00;0.62;2.33;1.77;;;18.10;33.20;;;;;;2269170;61;20396;-54
2021/12/24 09:14:45;0.00;0.00;0.62;0.00;0.00;0.62;2.20;1.60;;;18.10;33.00;;;;;;2270051;61;20531;-52
2021/12/24 09:17:31;0.00;0.00;0.62;0.00;0.00;0.62;2.67;2.13;;;18.10;32.90;;;;;;2270348;61;20392;-57
2021/12/24 09:20:24;0.00;0.00;0.62;0.00;0.00;0.62;3.13;1.90;;;18.20;32.90;;;;;;2268984;61;20367;-57
2021/12/24 09:23:10;0.00;0.00;0.62;0.00;0.00;0.62;2.43;1.70;;;18.20;32.80;;;;;;2270383;61;20460;-56
2021/12/24 09:25:55;0.00;0.00;0.62;0.00;0.00;0.62;2.20;1.60;;;18.20;32.70;;;;;;2269948;61;20414;-57
2021/12/24 09:28:40;0.00;0.00;0.62;0.00;0.00;0.62;2.00;1.10;;;18.30;32.70;;;;;;2269527;61;20451;-56
2021/12/24 09:31:26;0.00;0.00;0.62;0.00;0.00;0.62;2.70;1.83;;;18.30;32.60;;;;;;2270241;61;20391;-53
2021/12/24 09:34:10;0.00;0.00;0.62;0.00;0.00;0.62;2.20;1.40;;;18.40;32.60;;;;;;2268696;61;20360;-58
2021/12/24 09:36:56;0.00;0.00;0.62;0.00;0.00;0.62;1.83;1.53;;;18.40;32.50;;;;;;2269946;61;20445;-54
2021/12/24 09:39:41;0.00;0.00;0.62;0.00;0.00;0.62;1.90;1.23;;;18.40;32.40;;;;;;2270275;61;20368;-56
2021/12/24 09:42:27;0.00;0.00;0.62;0.00;0.00;0.62;1.93;1.57;;;18.50;32.30;;;;;;2268996;61;20383;-58
2021/12/24 09:45:12;0.00;0.00;0.62;0.00;0.00;0.62;2.20;1.30;;;18.50;32.30;;;;;;2270105;61;20371;-57
2021/12/24 09:47:56;0.00;0.00;0.62;0.00;0.00;0.62;1.60;1.33;;;18.50;32.20;;;;;;2270278;61;20368;-56
2021/12/24 09:50:41;0.00;0.00;0.62;0.00;0.00;0.62;2.60;1.43;;;18.50;32.10;;;;;;2269562;61;20363;-54
2021/12/24 09:53:27;0.00;0.00;0.62;0.00;0.00;0.62;2.07;1.03;;;18.60;32.10;;;;;;2270284;61;20396;-56
2021/12/24 09:56:11;0.00;0.00;0.62;0.00;0.00;0.62;2.43;1.40;;;18.60;32.10;;;;;;2268957;61;20752;-55
2021/12/24 09:58:56;0.00;0.00;0.62;0.00;0.00;0.62;1.80;1.30;;;18.60;32.00;;;;;;2269924;61;20383;-55
2021/12/24 10:01:43;0.00;0.00;0.62;0.00;0.00;0.62;1.80;1.10;;;18.70;32.00;;;;;;2270305;61;20379;-57
2021/12/24 10:04:31;0.00;0.00;0.62;0.00;0.00;0.62;1.93;1.40;;;18.70;31.90;;;;;;2268882;61;20352;-57
2021/12/24 10:07:17;0.00;0.00;0.62;0.00;0.00;0.62;1.73;1.33;;;18.70;31.80;;;;;;2270245;61;20376;-54
2021/12/24 10:10:07;0.00;0.00;0.62;0.00;0.00;0.62;1.83;1.27;;;18.80;31.90;;;;;;2275326;60;20433;-55
2021/12/24 10:12:53;0.00;0.00;0.62;0.00;0.00;0.62;1.83;1.30;;;18.80;31.80;;;;;;2269470;61;20467;-55
2021/12/24 10:15:50;0.00;0.00;0.62;0.00;0.00;0.62;2.57;1.83;;;18.80;31.70;;;;;;2275287;61;20399;-54
2021/12/24 10:18:41;0.00;0.00;0.62;0.00;0.00;0.62;1.30;0.90;;;18.90;31.80;;;;;;2269039;61;20450;-58
2021/12/24 10:21:27;0.00;0.00;0.62;0.00;0.00;0.62;2.13;1.23;;;18.90;31.70;;;;;;2270014;61;20367;-53
2021/12/24 10:24:16;0.00;0.00;0.62;0.00;0.00;0.62;2.70;1.40;;;18.90;31.70;;;;;;2270175;61;20372;-55
2021/12/24 10:27:03;0.00;0.00;0.62;0.00;0.00;0.62;1.50;1.10;;;18.90;31.60;;;;;;2268646;61;20369;-51
2021/12/24 10:29:47;0.00;0.00;0.62;0.00;0.00;0.62;1.63;1.10;;;18.90;31.50;;;;;;2270151;61;20380;-56
2021/12/24 10:32:38;0.00;0.00;0.62;0.00;0.00;0.62;1.73;1.00;;;19.00;31.50;;;;;;2269547;61;20360;-57
2021/12/24 10:35:25;0.00;0.00;0.62;0.00;0.00;0.62;1.60;1.00;;;19.00;31.50;;;;;;2269372;61;20363;-54
2021/12/24 10:38:12;0.00;0.00;0.62;0.00;0.00;0.62;1.60;1.10;;;19.00;31.40;;;;;;2270052;61;20390;-56
2021/12/24 10:41:04;0.00;0.00;0.62;0.00;0.00;0.62;1.60;1.10;;;19.00;31.30;;;;;;2269003;61;20475;-57
2021/12/24 10:43:51;0.00;0.00;0.62;0.00;0.00;0.62;1.40;0.90;;;19.00;31.30;;;;;;2270092;61;20700;-56
2021/12/24 10:46:36;0.00;0.00;0.62;0.00;0.00;0.62;1.60;1.00;;;19.10;31.30;;;;;;2269922;61;20754;-57
2021/12/24 10:49:36;0.00;0.00;0.62;0.00;0.00;0.62;1.37;0.80;;;19.10;31.30;;;;;;2268905;61;20359;-55
2021/12/24 10:55:11;0.00;0.00;0.62;0.00;0.00;0.62;1.50;1.00;;;19.20;31.30;;;;;;2269248;61;20376;-56
2021/12/24 10:57:59;0.00;0.00;0.62;0.00;0.00;0.62;1.57;0.93;;;19.20;31.20;;;;;;2269747;61;20441;-56
2021/12/24 11:00:48;0.00;0.00;0.62;0.00;0.00;0.62;1.60;1.00;;;19.20;31.10;;;;;;2270008;61;20371;-55
2021/12/24 11:03:34;0.00;0.00;0.62;0.00;0.00;0.62;1.37;0.87;;;19.20;31.10;;;;;;2268789;61;20415;-58
2021/12/24 11:06:21;0.00;0.00;0.62;0.00;0.00;0.62;1.40;1.00;;;19.20;31.00;;;;;;2269886;61;20380;-54
2021/12/24 11:09:05;0.00;0.00;0.62;0.00;0.00;0.62;1.77;0.93;;;19.20;31.00;;;;;;2270009;61;20437;-55
2021/12/24 11:11:50;0.00;0.00;0.62;0.00;0.00;0.62;1.77;1.10;;;19.20;30.90;;;;;;2268784;61;20720;-57
2021/12/24 11:14:34;0.00;0.00;0.62;0.00;0.00;0.62;1.50;1.00;;;19.30;31.00;;;;;;2269961;61;20380;-56
2021/12/24 11:20:13;0.00;0.00;0.62;0.00;0.00;0.62;1.50;1.10;;;19.30;30.90;;;;;;1676485;74;20466;-55
2021/12/24 11:23:03;0.00;0.00;0.62;0.00;0.00;0.62;1.40;0.90;;;19.40;30.90;;;;;;2269220;61;20387;-58
2021/12/24 11:25:51;0.00;0.00;0.62;0.00;0.00;0.62;1.30;0.80;;;19.30;30.80;;;;;;2267850;61;20353;-54
2021/12/24 11:28:37;0.00;0.00;0.62;0.00;0.00;0.62;2.60;1.17;;;19.30;30.80;;;;;;2269221;61;20402;-57
2021/12/24 11:31:25;0.00;0.00;0.62;0.00;0.00;0.62;1.50;0.90;;;19.30;30.70;;;;;;2269251;61;20380;-56
2021/12/24 11:34:10;0.00;0.00;0.62;0.00;0.00;0.62;1.33;0.93;;;19.40;30.70;;;;;;2268452;61;20360;-57
2021/12/24 11:36:57;0.00;0.00;0.62;0.00;0.00;0.62;1.87;0.80;;;19.40;30.70;;;;;;2269080;61;20372;-57
2021/12/24 11:39:42;0.00;0.00;0.62;0.00;0.00;0.62;2.13;1.20;;;19.40;30.60;;;;;;2267817;61;20384;-58
2021/12/24 11:42:31;0.00;0.00;0.62;0.00;0.00;0.62;1.50;0.90;;;19.40;30.60;;;;;;2268966;61;20356;-52
2021/12/24 11:45:15;0.00;0.00;0.62;0.00;0.00;0.62;1.40;1.00;;;19.50;30.60;;;;;;2269091;61;20601;-55
2021/12/24 11:48:02;0.00;0.00;0.62;0.00;0.00;0.62;1.27;0.80;;;19.50;30.60;;;;;;2267874;61;20344;-57
2021/12/24 11:50:47;0.00;0.00;0.62;0.00;0.00;0.62;1.40;0.90;;;19.50;30.50;;;;;;2269246;61;20736;-56
2021/12/24 11:53:33;0.00;0.00;0.62;0.00;0.00;0.62;1.40;0.80;;;19.50;30.50;;;;;;2269130;61;20494;-56
2021/12/24 11:56:20;0.00;0.00;0.62;0.00;0.00;0.62;1.67;1.03;;;19.50;30.50;;;;;;2267923;61;20384;-57
2021/12/24 11:59:05;0.00;0.00;0.62;0.00;0.00;0.62;1.67;0.97;;;19.50;30.40;;;;;;2269045;61;20407;-55
2021/12/24 12:01:50;0.00;0.00;0.62;0.00;0.00;0.62;1.90;0.93;;;19.50;30.40;;;;;;2268199;61;20562;-58
2021/12/24 12:04:34;0.00;0.00;0.62;0.00;0.00;0.62;1.90;1.00;;;19.50;30.40;;;;;;2268887;61;20383;-60
2021/12/24 12:07:24;0.00;0.00;0.62;0.00;0.00;0.62;1.60;0.83;;;19.50;30.40;;;;;;2269158;61;20430;-53
2021/12/24 12:10:11;0.00;0.00;0.62;0.00;0.00;0.62;1.63;1.13;;;19.50;30.40;;;;;;2268024;61;20352;-56
2021/12/24 12:12:55;0.00;0.00;0.62;0.00;0.00;0.62;1.50;0.90;;;19.60;30.60;;;;;;2268990;61;20392;-60
2021/12/24 12:15:56;0.00;0.00;0.62;0.00;0.00;0.62;1.40;0.90;;;19.60;30.60;;;;;;2269017;61;20356;-54
2021/12/24 12:19:04;0.00;0.00;0.62;0.00;0.00;0.62;1.60;1.00;;;19.60;30.70;;;;;;2268517;61;20380;-56
2021/12/24 12:22:15;0.00;0.00;0.62;0.00;0.00;0.62;2.00;1.60;;;19.60;30.70;;;;;;2269120;61;20349;-52
2021/12/24 12:25:03;0.00;0.00;0.62;0.00;0.00;0.62;1.90;1.30;;;19.60;30.70;;;;;;2268132;61;20372;-56
2021/12/24 12:27:57;0.00;0.00;0.62;0.00;0.00;0.62;1.90;1.17;;;19.60;30.60;;;;;;2269025;61;20508;-53
2021/12/24 12:30:49;0.00;0.00;0.62;0.00;0.00;0.62;1.30;0.83;;;19.60;30.60;;;;;;2267280;61;20416;-50